createdAt,value
2022-09-10T00:00:48.547Z,51.4
2022-09-10T00:02:31.927Z,51.4
2022-09-10T00:04:15.396Z,51.4
2022-09-10T00:05:58.785Z,51.4
2022-09-10T00:07:42.413Z,51.4
2022-09-10T00:09:25.935Z,51.4
2022-09-10T00:11:09.324Z,51.4
2022-09-10T00:12:52.694Z,51.5
2022-09-10T00:14:35.984Z,51.5
2022-09-10T00:16:19.423Z,51.5
2022-09-10T00:18:02.895Z,51.5
2022-09-10T00:21:29.301Z,51.5
2022-09-10T00:23:12.779Z,51.5
2022-09-10T00:24:56.055Z,51.5
2022-09-10T00:26:39.531Z,51.5
2022-09-10T00:28:22.889Z,51.5
2022-09-10T00:30:06.354Z,51.5
2022-09-10T00:31:49.630Z,51.5
2022-09-10T00:33:33.454Z,51.5
2022-09-10T00:35:16.862Z,51.6
2022-09-10T00:37:00.146Z,51.6
2022-09-10T00:38:43.618Z,51.6
2022-09-10T00:40:26.944Z,51.6
2022-09-10T00:42:10.412Z,51.6
2022-09-10T00:43:53.818Z,51.6
2022-09-10T00:45:37.469Z,51.6
2022-09-10T00:47:20.819Z,51.6
2022-09-10T00:49:04.284Z,51.6
2022-09-10T00:50:47.656Z,51.6
2022-09-10T00:52:31.052Z,51.6
2022-09-10T00:54:14.464Z,51.6
2022-09-10T00:55:57.808Z,51.6
2022-09-10T00:57:41.571Z,51.6
2022-09-10T00:59:24.905Z,51.6
2022-09-10T01:01:08.306Z,51.6
2022-09-10T01:02:51.773Z,51.6
2022-09-10T01:04:35.194Z,51.6
2022-09-10T01:06:18.545Z,51.7
2022-09-10T01:08:01.944Z,51.7
2022-09-10T01:09:45.627Z,51.7
2022-09-10T01:11:29.045Z,51.7
2022-09-10T01:13:12.366Z,51.7
2022-09-10T01:14:55.883Z,51.7
2022-09-10T01:16:39.291Z,51.7
2022-09-10T01:18:22.563Z,51.7
2022-09-10T01:20:05.969Z,51.7
2022-09-10T01:23:32.568Z,51.7
2022-09-10T01:25:15.820Z,51.7
2022-09-10T01:26:59.311Z,51.7
2022-09-10T01:28:42.656Z,51.8
2022-09-10T01:30:26.090Z,51.7
2022-09-10T01:32:09.411Z,51.8
2022-09-10T01:33:52.922Z,51.8
2022-09-10T01:37:19.394Z,51.8
2022-09-10T01:39:02.791Z,51.8
2022-09-10T01:40:46.171Z,51.8
2022-09-10T01:42:29.503Z,51.8
2022-09-10T01:44:12.878Z,51.8
2022-09-10T01:45:56.417Z,51.8
2022-09-10T01:47:39.701Z,51.8
2022-09-10T01:51:06.269Z,51.8
2022-09-10T01:52:49.609Z,51.8
2022-09-10T01:54:32.940Z,51.8
2022-09-10T01:56:16.310Z,51.8
2022-09-10T01:57:59.827Z,51.8
2022-09-10T01:59:43.110Z,51.8
2022-09-10T02:01:26.606Z,51.8
2022-09-10T02:04:53.090Z,51.8
2022-09-10T02:06:36.382Z,51.8
2022-09-10T02:08:19.876Z,51.8
2022-09-10T02:10:03.188Z,51.8
2022-09-10T02:11:46.632Z,51.9
2022-09-10T02:13:29.980Z,51.8
2022-09-10T02:15:13.456Z,51.8
2022-09-10T02:18:39.929Z,51.9
2022-09-10T02:20:23.235Z,51.9
2022-09-10T02:22:06.700Z,51.9
2022-09-10T02:23:50.124Z,51.9
2022-09-10T02:25:33.449Z,51.9
2022-09-10T02:27:16.915Z,51.9
2022-09-10T02:29:00.313Z,51.9
2022-09-10T02:32:26.767Z,51.9
2022-09-10T02:34:10.063Z,51.9
2022-09-10T02:35:53.559Z,51.9
2022-09-10T02:37:36.891Z,51.9
2022-09-10T02:39:20.265Z,51.9
2022-09-10T02:41:03.645Z,51.9
2022-09-10T02:42:47.129Z,51.9
2022-09-10T02:44:30.534Z,51.9
2022-09-10T02:46:14.206Z,51.9
2022-09-10T02:47:57.602Z,51.9
2022-09-10T02:49:41.041Z,51.9
2022-09-10T02:51:24.374Z,51.9
2022-09-10T02:53:07.746Z,51.9
2022-09-10T02:54:51.132Z,51.9
2022-09-10T02:56:34.549Z,51.9
2022-09-10T03:00:01.022Z,51.9
2022-09-10T03:01:44.400Z,51.9
2022-09-10T03:03:27.813Z,51.9
2022-09-10T03:05:11.239Z,51.9
2022-09-10T03:06:54.584Z,51.9
2022-09-10T03:08:37.992Z,51.9
2022-09-10T03:10:21.379Z,51.9
2022-09-10T03:15:30.628Z,51.9
2022-09-10T03:17:14.012Z,51.9
2022-09-10T03:18:57.413Z,51.9
2022-09-10T03:20:40.811Z,51.9
2022-09-10T03:22:24.197Z,51.9
2022-09-10T03:24:07.626Z,51.9
2022-09-10T03:25:51.002Z,51.9
2022-09-10T03:27:34.708Z,51.9
2022-09-10T03:29:18.111Z,51.9
2022-09-10T03:31:01.490Z,51.9
2022-09-10T03:32:44.880Z,51.9
2022-09-10T03:34:28.274Z,51.9
2022-09-10T03:36:11.671Z,51.9
2022-09-10T03:37:55.084Z,51.9
2022-09-10T03:41:21.559Z,52
2022-09-10T03:43:04.948Z,52
2022-09-10T03:44:48.349Z,52
2022-09-10T03:46:31.727Z,52
2022-09-10T03:48:15.138Z,52
2022-09-10T03:49:58.550Z,52
2022-09-10T03:51:41.934Z,52
2022-09-10T03:53:25.655Z,52
2022-09-10T03:55:09.091Z,52
2022-09-10T03:56:52.408Z,52
2022-09-10T03:58:35.813Z,52
2022-09-10T04:00:19.218Z,52
2022-09-10T04:02:02.615Z,52
2022-09-10T04:03:46.000Z,52
2022-09-10T04:07:12.511Z,52
2022-09-10T04:08:55.864Z,52
2022-09-10T04:10:39.267Z,52
2022-09-10T04:12:22.666Z,52
2022-09-10T04:14:06.122Z,52
2022-09-10T04:17:32.845Z,52
2022-09-10T04:19:16.544Z,52
2022-09-10T04:20:59.958Z,52
2022-09-10T04:22:43.361Z,52
2022-09-10T04:24:26.750Z,52
2022-09-10T04:26:10.143Z,52
2022-09-10T04:27:53.545Z,52
2022-09-10T04:29:36.940Z,52
2022-09-10T04:33:03.423Z,52
2022-09-10T04:34:46.812Z,52
2022-09-10T04:36:30.230Z,52
2022-09-10T04:38:13.610Z,52
2022-09-10T04:39:57.023Z,52
2022-09-10T04:41:40.392Z,52
2022-09-10T04:43:23.783Z,52
2022-09-10T04:46:50.261Z,52
2022-09-10T04:48:33.654Z,52
2022-09-10T04:50:17.068Z,52
2022-09-10T04:52:00.541Z,52
2022-09-10T04:53:43.825Z,52
2022-09-10T04:55:27.241Z,52
2022-09-10T04:57:10.628Z,52
2022-09-10T04:58:54.355Z,52
2022-09-10T05:00:37.823Z,52
2022-09-10T05:02:21.126Z,52
2022-09-10T05:04:04.529Z,52
2022-09-10T05:05:47.914Z,52
2022-09-10T05:07:31.306Z,52.1
2022-09-10T05:09:14.718Z,52.1
2022-09-10T05:12:41.191Z,52.2
2022-09-10T05:14:24.584Z,52.3
2022-09-10T05:16:07.975Z,52.2
2022-09-10T05:17:51.373Z,52.1
2022-09-10T05:19:34.771Z,52.2
2022-09-10T05:21:18.155Z,52.4
2022-09-10T05:23:01.558Z,52.5
2022-09-10T05:24:45.273Z,52.4
2022-09-10T05:26:28.654Z,52.5
2022-09-10T05:28:12.057Z,52.5
2022-09-10T05:29:55.452Z,52.2
2022-09-10T05:31:38.847Z,52
2022-09-10T05:33:22.249Z,52.1
2022-09-10T05:35:05.635Z,52.2
2022-09-10T05:38:32.124Z,52.2
2022-09-10T05:40:15.503Z,52.3
2022-09-10T05:41:58.895Z,52.3
2022-09-10T05:43:42.304Z,52.3
2022-09-10T05:45:25.690Z,52.3
2022-09-10T05:47:09.099Z,52.3
2022-09-10T05:48:52.480Z,52.3
2022-09-10T05:52:18.965Z,52.3
2022-09-10T05:54:02.361Z,52.3
2022-09-10T05:55:45.752Z,52.3
2022-09-10T05:57:29.145Z,52.3
2022-09-10T05:59:12.540Z,52.3
2022-09-10T06:00:55.946Z,52.3
2022-09-10T06:02:39.337Z,52.3
2022-09-10T06:06:05.804Z,52.3
2022-09-10T06:07:49.206Z,52.3
2022-09-10T06:09:32.651Z,52.3
2022-09-10T06:11:15.991Z,52.3
2022-09-10T06:12:59.398Z,52.3
2022-09-10T06:14:42.795Z,52.4
2022-09-10T06:16:26.194Z,52.4
2022-09-10T06:19:52.648Z,52.3
2022-09-10T06:21:36.072Z,52.3
2022-09-10T06:23:19.450Z,52.3
2022-09-10T06:25:02.844Z,52.3
2022-09-10T06:26:46.243Z,52.3
2022-09-10T06:28:29.628Z,52.3
2022-09-10T06:30:13.057Z,52.3
2022-09-10T06:33:39.507Z,52.3
2022-09-10T06:35:22.905Z,52.3
2022-09-10T06:37:06.296Z,52.3
2022-09-10T06:38:49.702Z,52.3
2022-09-10T06:40:33.093Z,52.3
2022-09-10T06:42:16.477Z,52.3
2022-09-10T06:43:59.886Z,52.3
2022-09-10T06:45:43.590Z,52.3
2022-09-10T06:47:26.984Z,52.3
2022-09-10T06:49:10.416Z,52.3
2022-09-10T06:50:53.767Z,52.3
2022-09-10T06:52:37.181Z,52.3
2022-09-10T06:54:20.562Z,52.3
2022-09-10T06:56:03.970Z,52.3
2022-09-10T06:59:30.443Z,52.3
2022-09-10T07:01:13.830Z,52.3
2022-09-10T07:02:57.234Z,52.2
2022-09-10T07:04:40.633Z,52.2
2022-09-10T07:06:24.011Z,52.3
2022-09-10T07:08:07.422Z,52.3
2022-09-10T07:09:50.810Z,52.3
2022-09-10T07:13:17.276Z,52.4
2022-09-10T07:15:00.720Z,52.4
2022-09-10T07:16:44.069Z,52.3
2022-09-10T07:18:27.467Z,52.4
2022-09-10T07:20:10.860Z,52.4
2022-09-10T07:21:54.258Z,52.4
2022-09-10T07:23:37.658Z,52.4
2022-09-10T07:27:04.133Z,52.3
2022-09-10T07:28:47.536Z,52.3
2022-09-10T07:30:30.924Z,52.3
2022-09-10T07:32:14.331Z,52.3
2022-09-10T07:33:57.708Z,52.3
2022-09-10T07:35:41.104Z,52.3
2022-09-10T07:37:24.512Z,52.3
2022-09-10T07:40:50.969Z,52.3
2022-09-10T07:42:34.374Z,52.3
2022-09-10T07:44:17.777Z,52.3
2022-09-10T07:46:01.174Z,52.3
2022-09-10T07:47:44.560Z,52.4
2022-09-10T07:49:27.954Z,52.3
2022-09-10T07:51:11.345Z,52.3
2022-09-10T07:52:55.062Z,52.2
2022-09-10T07:54:38.444Z,52.2
2022-09-10T07:56:21.849Z,52.1
2022-09-10T07:58:05.228Z,52.3
2022-09-10T07:59:48.639Z,52.1
2022-09-10T08:01:32.042Z,52.1
2022-09-10T08:03:15.462Z,52.1
2022-09-10T08:06:41.961Z,52.3
2022-09-10T08:08:25.289Z,52.3
2022-09-10T08:10:08.704Z,52.3
2022-09-10T08:11:52.095Z,52.6
2022-09-10T08:13:35.480Z,52.5
2022-09-10T08:15:18.887Z,52.3
2022-09-10T08:17:02.281Z,52.4
2022-09-10T08:18:45.974Z,52.3
2022-09-10T08:20:29.372Z,52.2
2022-09-10T08:22:12.781Z,52.3
2022-09-10T08:23:56.170Z,52.5
2022-09-10T08:25:39.581Z,52.7
2022-09-10T08:27:22.968Z,52.7
2022-09-10T08:29:06.609Z,52.9
2022-09-10T08:32:32.829Z,52.7
2022-09-10T08:34:16.231Z,52.7
2022-09-10T08:35:59.630Z,52.8
2022-09-10T08:37:43.016Z,52.8
2022-09-10T08:39:26.438Z,52.8
2022-09-10T08:41:09.828Z,53
2022-09-10T08:42:53.204Z,53
2022-09-10T08:46:19.677Z,52.8
2022-09-10T08:48:03.090Z,52.7
2022-09-10T08:49:46.472Z,52.8
2022-09-10T08:51:29.877Z,53
2022-09-10T08:53:13.271Z,53.1
2022-09-10T08:54:56.673Z,53.2
2022-09-10T08:56:40.070Z,53
2022-09-10T08:58:23.769Z,53.1
2022-09-10T09:00:07.159Z,53
2022-09-10T09:01:50.561Z,53
2022-09-10T09:03:33.951Z,53.1
2022-09-10T09:05:17.352Z,53.1
2022-09-10T09:07:00.759Z,53.2
2022-09-10T09:08:44.161Z,53.2
2022-09-10T09:12:10.622Z,53.3
2022-09-10T09:13:54.014Z,53.3
2022-09-10T09:15:37.404Z,53.1
2022-09-10T09:17:20.818Z,52.9
2022-09-10T09:19:04.214Z,52.8
2022-09-10T09:20:47.608Z,52.6
2022-09-10T09:22:30.997Z,52.3
2022-09-10T09:24:14.712Z,52.2
2022-09-10T09:25:58.110Z,52.2
2022-09-10T09:27:41.495Z,52.2
2022-09-10T09:29:24.893Z,52.2
2022-09-10T09:31:08.292Z,52.3
2022-09-10T09:32:51.700Z,52.4
2022-09-10T09:34:35.089Z,52.6
2022-09-10T09:38:01.587Z,52.3
2022-09-10T09:39:44.963Z,52.1
2022-09-10T09:41:28.344Z,52
2022-09-10T09:43:11.766Z,51.9
2022-09-10T09:44:55.158Z,51.9
2022-09-10T09:46:38.543Z,51.9
2022-09-10T09:48:22.011Z,51.9
2022-09-10T09:51:48.419Z,51.8
2022-09-10T09:53:31.819Z,51.8
2022-09-10T09:56:58.689Z,51.6
2022-09-10T09:58:42.022Z,51.6
2022-09-10T10:00:25.395Z,51.6
2022-09-10T10:02:08.788Z,51.7
2022-09-10T10:05:35.276Z,51.8
2022-09-10T10:07:18.668Z,51.8
2022-09-10T10:09:02.086Z,51.9
2022-09-10T10:10:45.456Z,51.8
2022-09-10T10:12:28.849Z,51.9
2022-09-10T10:14:12.283Z,52.1
2022-09-10T10:15:55.637Z,52.1
2022-09-10T10:19:22.128Z,52
2022-09-10T10:21:05.524Z,51.9
2022-09-10T10:22:49.013Z,52.2
2022-09-10T10:24:32.366Z,52
2022-09-10T10:26:15.699Z,51.9
2022-09-10T10:27:59.109Z,51.8
2022-09-10T10:29:42.504Z,51.9
2022-09-10T10:33:08.983Z,52.3
2022-09-10T10:34:52.364Z,52.7
2022-09-10T10:36:35.756Z,52.7
2022-09-10T10:38:19.149Z,53
2022-09-10T10:40:02.563Z,52.5
2022-09-10T10:41:45.954Z,52.3
2022-09-10T10:43:29.372Z,52.3
2022-09-10T10:45:13.042Z,52.2
2022-09-10T10:46:56.453Z,52.2
2022-09-10T10:48:39.852Z,52.5
2022-09-10T10:50:23.249Z,52.7
2022-09-10T10:52:06.647Z,52.5
2022-09-10T10:53:50.034Z,52.3
2022-09-10T10:55:33.437Z,52.6
2022-09-10T10:58:59.895Z,52.9
2022-09-10T11:00:43.305Z,52.3
2022-09-10T11:02:26.711Z,52.5
2022-09-10T11:04:10.119Z,52.9
2022-09-10T11:05:53.492Z,52.6
2022-09-10T11:07:36.976Z,52.4
2022-09-10T11:11:03.445Z,52.5
2022-09-10T11:12:46.901Z,52.4
2022-09-10T11:14:30.188Z,52.5
2022-09-10T11:16:13.548Z,52.4
2022-09-10T11:17:56.975Z,52.3
2022-09-10T11:19:40.362Z,52.2
2022-09-10T11:21:23.733Z,52.2
2022-09-10T11:24:50.293Z,52.3
2022-09-10T11:26:33.616Z,52.5
2022-09-10T11:28:17.045Z,52.6
2022-09-10T11:30:00.401Z,52.7
2022-09-10T11:31:43.801Z,52.5
2022-09-10T11:33:27.199Z,52.3
2022-09-10T11:35:10.599Z,52.3
2022-09-10T11:36:54.345Z,52.4
2022-09-10T11:38:37.706Z,52.6
2022-09-10T11:40:21.096Z,52.4
2022-09-10T11:42:04.489Z,52.2
2022-09-10T11:43:47.873Z,52.3
2022-09-10T11:45:31.281Z,52.2
2022-09-10T11:47:14.686Z,52
2022-09-10T11:50:41.164Z,52.2
2022-09-10T11:52:24.586Z,52
2022-09-10T11:54:07.948Z,52
2022-09-10T11:55:51.346Z,52.3
2022-09-10T11:57:34.743Z,52.1
2022-09-10T11:59:18.177Z,52
2022-09-10T12:04:27.387Z,52.4
2022-09-10T12:06:10.776Z,52.4
2022-09-10T12:07:54.193Z,52.5
2022-09-10T12:09:37.566Z,52.6
2022-09-10T12:11:20.978Z,52.6
2022-09-10T12:13:04.364Z,52.7
2022-09-10T12:14:47.761Z,52.8
2022-09-10T12:16:31.468Z,52.9
2022-09-10T12:18:14.880Z,52.8
2022-09-10T12:19:58.259Z,53.1
2022-09-10T12:21:41.660Z,53
2022-09-10T12:23:25.113Z,52.9
2022-09-10T12:25:08.474Z,52.9
2022-09-10T12:26:51.844Z,52.9
2022-09-10T12:30:18.317Z,52.8
2022-09-10T12:32:01.723Z,52.6
2022-09-10T12:33:45.111Z,52.6
2022-09-10T12:35:28.506Z,52.5
2022-09-10T12:37:11.906Z,52.4
2022-09-10T12:38:55.307Z,52.5
2022-09-10T12:44:04.555Z,52.5
2022-09-10T12:45:47.933Z,52.4
2022-09-10T12:47:31.339Z,52.6
2022-09-10T12:49:14.807Z,52.5
2022-09-10T12:50:58.153Z,52.5
2022-09-10T12:52:41.518Z,52.6
2022-09-10T12:56:07.991Z,52.8
2022-09-10T12:57:51.389Z,52.7
2022-09-10T12:59:34.790Z,52.6
2022-09-10T13:01:18.192Z,52.5
2022-09-10T13:03:01.612Z,52.5
2022-09-10T13:04:44.987Z,52.5
2022-09-10T13:06:28.387Z,52.7
2022-09-10T13:08:12.078Z,52.7
2022-09-10T13:09:55.472Z,52.6
2022-09-10T13:11:38.875Z,52.6
2022-09-10T13:13:22.258Z,52.6
2022-09-10T13:15:05.663Z,52.7
2022-09-10T13:16:49.064Z,52.9
2022-09-10T13:18:32.456Z,53
2022-09-10T13:21:58.942Z,53.4
2022-09-10T13:23:42.325Z,53.6
2022-09-10T13:25:25.755Z,53.7
2022-09-10T13:27:09.119Z,53.8
2022-09-10T13:28:52.501Z,53.9
2022-09-10T13:30:35.903Z,53.9
2022-09-10T13:32:19.313Z,54.1
2022-09-10T13:34:03.019Z,54.2
2022-09-10T13:35:46.400Z,54.5
2022-09-10T13:37:29.806Z,54.5
2022-09-10T13:39:13.211Z,54.8
2022-09-10T13:40:56.594Z,55.1
2022-09-10T13:42:40.004Z,54.9
2022-09-10T13:44:23.551Z,55
2022-09-10T13:46:07.126Z,55.1
2022-09-10T13:47:50.486Z,55.3
2022-09-10T13:49:33.875Z,55.3
2022-09-10T13:51:17.296Z,55.3
2022-09-10T13:53:00.691Z,55.2
2022-09-10T13:54:44.083Z,55.3
2022-09-10T13:56:27.466Z,55.4
2022-09-10T13:59:53.951Z,55.8
2022-09-10T14:01:37.341Z,55.9
2022-09-10T14:03:20.760Z,56
2022-09-10T14:05:04.140Z,56.1
2022-09-10T14:06:47.544Z,56.2
2022-09-10T14:08:30.947Z,56.3
2022-09-10T14:10:14.315Z,56.3
2022-09-10T14:11:58.023Z,56.4
2022-09-10T14:13:41.450Z,56.4
2022-09-10T14:15:24.931Z,56.4
2022-09-10T14:17:08.215Z,56.4
2022-09-10T14:18:51.693Z,56.7
2022-09-10T14:20:35.045Z,56.8
2022-09-10T14:22:18.403Z,56.8
2022-09-10T14:25:44.891Z,56.8
2022-09-10T14:27:28.305Z,57
2022-09-10T14:29:11.694Z,57.3
2022-09-10T14:30:55.074Z,57.3
2022-09-10T14:32:38.481Z,57.4
2022-09-10T14:34:21.875Z,57.5
2022-09-10T14:36:05.275Z,57.5
2022-09-10T14:37:48.970Z,57.6
2022-09-10T14:39:32.476Z,57.3
2022-09-10T14:41:15.780Z,57.5
2022-09-10T14:42:59.160Z,57.6
2022-09-10T14:44:42.569Z,57.6
2022-09-10T14:46:25.958Z,57.7
2022-09-10T14:48:09.351Z,57.6
2022-09-10T14:51:35.846Z,57.8
2022-09-10T14:53:19.230Z,57.7
2022-09-10T14:55:02.615Z,57.8
2022-09-10T14:56:46.016Z,57.7
2022-09-10T14:58:29.408Z,57.7
2022-09-10T15:00:12.804Z,57.8
2022-09-10T15:01:56.212Z,58
2022-09-10T15:05:22.688Z,58
2022-09-10T15:07:06.060Z,58.1
2022-09-10T15:08:49.466Z,58.2
2022-09-10T15:10:32.872Z,58.2
2022-09-10T15:12:16.321Z,58.2
2022-09-10T15:13:59.706Z,58.3
2022-09-10T15:15:43.065Z,58.3
2022-09-10T15:19:09.526Z,58.1
2022-09-10T15:20:52.933Z,58.1
2022-09-10T15:22:36.321Z,58
2022-09-10T15:24:19.733Z,58.1
2022-09-10T15:26:03.111Z,58.2
2022-09-10T15:27:46.504Z,58.1
2022-09-10T15:29:29.918Z,58
2022-09-10T15:32:56.441Z,58.1
2022-09-10T15:34:39.790Z,58.2
2022-09-10T15:36:23.178Z,58.2
2022-09-10T15:38:06.573Z,58.5
2022-09-10T15:39:49.965Z,58.4
2022-09-10T15:41:33.377Z,58
2022-09-10T15:43:16.795Z,57.9
2022-09-10T15:46:43.235Z,58
2022-09-10T15:48:26.682Z,58
2022-09-10T15:50:10.033Z,58
2022-09-10T15:51:53.425Z,58
2022-09-10T15:53:36.828Z,58.1
2022-09-10T15:55:20.221Z,58.3
2022-09-10T15:57:03.611Z,58.2
2022-09-10T15:58:47.317Z,58.3
2022-09-10T16:00:30.729Z,58.6
2022-09-10T16:02:14.130Z,58.7
2022-09-10T16:03:57.529Z,58.4
2022-09-10T16:05:40.910Z,58.5
2022-09-10T16:07:24.329Z,58.6
2022-09-10T16:09:07.705Z,58.6
2022-09-10T16:10:51.413Z,58.6
2022-09-10T16:12:34.835Z,58.6
2022-09-10T16:14:18.204Z,58.7
2022-09-10T16:16:01.587Z,58.7
2022-09-10T16:17:45.022Z,58.5
2022-09-10T16:19:28.410Z,58.4
2022-09-10T16:21:11.796Z,58.5
2022-09-10T16:22:55.498Z,58.3
2022-09-10T16:24:38.888Z,57.9
2022-09-10T16:26:22.288Z,57.8
2022-09-10T16:28:05.676Z,57.6
2022-09-10T16:29:49.070Z,58
2022-09-10T16:31:32.468Z,58.1
2022-09-10T16:33:15.878Z,58.2
2022-09-10T16:36:42.363Z,58.5
2022-09-10T16:38:25.773Z,58.4
2022-09-10T16:40:09.130Z,58.4
2022-09-10T16:41:52.540Z,58.6
2022-09-10T16:43:35.952Z,58.5
2022-09-10T16:45:19.327Z,58.3
2022-09-10T16:47:02.732Z,58.4
2022-09-10T16:48:46.442Z,58.3
2022-09-10T16:50:29.828Z,58.4
2022-09-10T16:52:13.223Z,58.4
2022-09-10T16:53:56.627Z,58.3
2022-09-10T16:55:40.009Z,58.3
2022-09-10T16:57:23.417Z,58.1
2022-09-10T16:59:06.831Z,58
2022-09-10T17:00:50.509Z,58
2022-09-10T17:02:33.924Z,58
2022-09-10T17:04:17.296Z,58.2
2022-09-10T17:06:00.709Z,58.2
2022-09-10T17:07:44.104Z,58.2
2022-09-10T17:09:27.486Z,58.2
2022-09-10T17:11:10.987Z,58.3
2022-09-10T17:14:37.368Z,58.2
2022-09-10T17:16:20.766Z,58.3
2022-09-10T17:18:04.169Z,58.3
2022-09-10T17:19:47.556Z,58.2
2022-09-10T17:21:30.949Z,58.2
2022-09-10T17:23:14.351Z,58.2
2022-09-10T17:26:40.815Z,58.2
2022-09-10T17:28:24.226Z,58.2
2022-09-10T17:30:07.648Z,58.2
2022-09-10T17:31:51.012Z,58.2
2022-09-10T17:33:34.413Z,58.3
2022-09-10T17:35:17.798Z,58.3
2022-09-10T17:37:01.199Z,58.3
2022-09-10T17:40:27.682Z,58.3
2022-09-10T17:42:11.067Z,58.5
2022-09-10T17:43:54.460Z,58.6
2022-09-10T17:45:37.883Z,58.6
2022-09-10T17:47:21.251Z,58.6
2022-09-10T17:49:04.663Z,58.8
2022-09-10T17:52:31.130Z,58.7
2022-09-10T17:54:14.565Z,58.7
2022-09-10T17:55:57.919Z,58.6
2022-09-10T17:57:41.323Z,58.6
2022-09-10T17:59:24.766Z,58.6
2022-09-10T18:01:08.114Z,58.8
2022-09-10T18:02:51.506Z,58.7
2022-09-10T18:06:17.980Z,58.6
2022-09-10T18:08:01.384Z,58.8
2022-09-10T18:09:44.784Z,58.8
2022-09-10T18:11:28.205Z,58.8
2022-09-10T18:13:11.597Z,58.7
2022-09-10T18:14:55.007Z,58.7
2022-09-10T18:16:38.386Z,58.7
2022-09-10T18:18:22.103Z,58.6
2022-09-10T18:20:05.462Z,58.7
2022-09-10T18:21:48.871Z,58.9
2022-09-10T18:23:32.247Z,58.9
2022-09-10T18:25:15.676Z,58.8
2022-09-10T18:26:59.106Z,58.9
2022-09-10T18:28:42.441Z,58.8
2022-09-10T18:32:08.919Z,58.8
2022-09-10T18:33:52.303Z,58.7
2022-09-10T18:35:35.723Z,58.6
2022-09-10T18:37:19.103Z,58.7
2022-09-10T18:39:02.520Z,58.6
2022-09-10T18:40:45.901Z,58.7
2022-09-10T18:42:29.281Z,58.6
2022-09-10T18:45:55.760Z,58.7
2022-09-10T18:47:39.169Z,58.8
2022-09-10T18:49:22.563Z,58.7
2022-09-10T18:51:05.956Z,58.7
2022-09-10T18:52:49.423Z,58.7
2022-09-10T18:54:32.746Z,58.7
2022-09-10T18:56:16.180Z,58.7
2022-09-10T18:59:42.643Z,58.8
2022-09-10T19:01:26.012Z,58.8
2022-09-10T19:03:09.402Z,58.8
2022-09-10T19:04:52.824Z,58.8
2022-09-10T19:06:36.213Z,58.8
2022-09-10T19:08:19.606Z,58.7
2022-09-10T19:10:02.994Z,58.6
2022-09-10T19:13:29.496Z,58.7
2022-09-10T19:15:12.920Z,58.7
2022-09-10T19:16:56.274Z,58.6
2022-09-10T19:18:39.662Z,58.6
2022-09-10T19:20:23.056Z,58.7
2022-09-10T19:22:06.474Z,58.8
2022-09-10T19:23:49.871Z,58.9
2022-09-10T19:27:16.365Z,58.6
2022-09-10T19:28:59.732Z,58.5
2022-09-10T19:30:43.146Z,58.3
2022-09-10T19:32:26.581Z,58.3
2022-09-10T19:34:09.968Z,58.3
2022-09-10T19:35:53.353Z,58.3
2022-09-10T19:37:36.722Z,58.2
2022-09-10T19:39:20.509Z,58.1
2022-09-10T19:41:03.828Z,58
2022-09-10T19:42:47.239Z,58
2022-09-10T19:44:30.642Z,58
2022-09-10T19:46:14.013Z,57.9
2022-09-10T19:47:57.382Z,57.8
2022-09-10T19:49:40.814Z,57.8
2022-09-10T19:53:07.266Z,57.6
2022-09-10T19:54:50.717Z,57.4
2022-09-10T19:56:34.098Z,57.3
2022-09-10T19:58:17.447Z,57
2022-09-10T20:00:00.860Z,57
2022-09-10T20:01:44.233Z,57
2022-09-10T20:03:27.659Z,57
2022-09-10T20:06:54.167Z,57
2022-09-10T20:08:37.510Z,57
2022-09-10T20:10:20.911Z,56.9
2022-09-10T20:12:04.322Z,56.9
2022-09-10T20:13:47.737Z,56.9
2022-09-10T20:15:31.211Z,57
2022-09-10T20:17:14.513Z,57
2022-09-10T20:20:40.956Z,56.8
2022-09-10T20:22:24.368Z,56.8
2022-09-10T20:24:07.796Z,56.7
2022-09-10T20:25:51.149Z,56.7
2022-09-10T20:27:34.560Z,56.7
2022-09-10T20:29:17.999Z,56.8
2022-09-10T20:31:01.348Z,56.7
2022-09-10T20:34:27.832Z,56.7
2022-09-10T20:36:11.207Z,56.7
2022-09-10T20:37:54.624Z,56.7
2022-09-10T20:39:38.000Z,56.7
2022-09-10T20:41:21.408Z,56.6
2022-09-10T20:43:04.817Z,56.6
2022-09-10T20:44:48.190Z,56.5
2022-09-10T20:48:14.681Z,56.4
2022-09-10T20:49:58.120Z,56.3
2022-09-10T20:51:41.452Z,56.2
2022-09-10T20:53:24.882Z,56.3
2022-09-10T20:55:08.260Z,56.3
2022-09-10T20:56:51.650Z,56.3
2022-09-10T20:58:35.055Z,56.3
2022-09-10T21:02:01.540Z,56.3
2022-09-10T21:03:44.934Z,56.3
2022-09-10T21:05:28.302Z,56.2
2022-09-10T21:07:11.710Z,56.1
2022-09-10T21:08:55.110Z,56.1
2022-09-10T21:10:38.506Z,56
2022-09-10T21:12:21.933Z,56
2022-09-10T21:14:05.588Z,56
2022-09-10T21:15:49.002Z,56
2022-09-10T21:17:32.401Z,56
2022-09-10T21:19:15.819Z,55.8
2022-09-10T21:20:59.172Z,55.7
2022-09-10T21:22:42.648Z,55.6
2022-09-10T21:24:25.984Z,55.6
2022-09-10T21:27:52.443Z,55.6
2022-09-10T21:29:35.853Z,55.6
2022-09-10T21:31:19.247Z,55.6
2022-09-10T21:33:02.675Z,55.5
2022-09-10T21:34:46.042Z,55.2
2022-09-10T21:36:29.425Z,55
2022-09-10T21:38:12.824Z,55.3
2022-09-10T21:41:39.298Z,55.3
2022-09-10T21:43:22.748Z,55.2
2022-09-10T21:45:06.103Z,55.1
2022-09-10T21:46:49.487Z,55
2022-09-10T21:48:32.889Z,54.9
2022-09-10T21:50:16.267Z,54.9
2022-09-10T21:51:59.693Z,54.9
2022-09-10T21:55:26.150Z,54.8
2022-09-10T21:57:09.550Z,54.8
2022-09-10T21:58:52.928Z,54.9
2022-09-10T22:00:36.328Z,54.8
2022-09-10T22:02:19.723Z,54.7
2022-09-10T22:04:03.174Z,54.8
2022-09-10T22:05:46.541Z,54.7
2022-09-10T22:07:30.225Z,54.7
2022-09-10T22:09:13.644Z,54.7
2022-09-10T22:10:57.027Z,54.8
2022-09-10T22:12:40.418Z,54.7
2022-09-10T22:14:23.823Z,54.7
2022-09-10T22:16:07.213Z,54.7
2022-09-10T22:17:50.607Z,54.6
2022-09-10T22:21:17.100Z,54.7
2022-09-10T22:23:00.476Z,54.8
2022-09-10T22:24:43.862Z,54.7
2022-09-10T22:26:27.270Z,54.7
2022-09-10T22:28:10.667Z,54.7
2022-09-10T22:29:54.063Z,54.7
2022-09-10T22:31:37.452Z,54.7
2022-09-10T22:35:03.929Z,54.8
2022-09-10T22:36:47.322Z,54.8
2022-09-10T22:38:30.805Z,54.8
2022-09-10T22:40:14.370Z,54.8
2022-09-10T22:41:57.500Z,54.7
2022-09-10T22:43:40.907Z,54.8
2022-09-10T22:45:24.291Z,54.7
2022-09-10T22:47:08.010Z,54.8
2022-09-10T22:48:51.400Z,54.7
2022-09-10T22:50:34.800Z,54.7
2022-09-10T22:52:18.189Z,54.7
2022-09-10T22:54:01.590Z,54.7
2022-09-10T22:55:44.986Z,54.7
2022-09-10T22:57:28.417Z,54.7
2022-09-10T23:00:54.907Z,54.7
2022-09-10T23:02:38.290Z,54.7
2022-09-10T23:04:21.648Z,54.7
2022-09-10T23:06:05.058Z,54.7
2022-09-10T23:07:48.466Z,54.6
2022-09-10T23:09:31.832Z,54.7
2022-09-10T23:11:15.226Z,54.7
2022-09-10T23:14:41.715Z,54.7
2022-09-10T23:16:25.093Z,54.7
2022-09-10T23:18:08.502Z,54.7
2022-09-10T23:19:51.892Z,54.7
2022-09-10T23:21:35.286Z,54.7
2022-09-10T23:23:18.677Z,54.7
2022-09-10T23:25:02.110Z,54.7
2022-09-10T23:28:28.611Z,54.7
2022-09-10T23:30:11.951Z,54.8
2022-09-10T23:31:55.349Z,54.8
2022-09-10T23:33:38.726Z,54.7
2022-09-10T23:35:22.126Z,54.7
2022-09-10T23:37:05.527Z,54.7
2022-09-10T23:38:48.932Z,54.7
2022-09-10T23:42:15.392Z,54.7
2022-09-10T23:43:58.800Z,54.7
2022-09-10T23:45:42.204Z,54.7
2022-09-10T23:47:25.587Z,54.7
2022-09-10T23:49:08.982Z,54.7
2022-09-10T23:50:52.376Z,54.7
2022-09-10T23:52:35.768Z,54.7
2022-09-10T23:56:02.255Z,54.7
2022-09-10T23:57:45.646Z,54.7
2022-09-10T23:59:29.045Z,54.7
